Terminal Aerodrome Forecast
Issued by NWS

Home | Current Version | Previous Version | Text Only | Print | Product List | Glossary On
Versions: 1 2 3 4 5 6 7 8 9 10 11 12 13 14 15 16 17 18 19 20 21 22 23 24 25 26
000
FTAK31 PAFA 281729
TAFATA
TAF
PATA 281729Z 2818/2918 26007KT P6SM BKN060 BKN100
     FM282000 27005KT P6SM VCSH BKN050 OVC100
     FM290200 30005KT P6SM SCT050 BKN100
     FM290800 34004KT P6SM FEW050 SCT100=

USA.gov is the U.S. government's official web portal to all federal, state and local government web resources and services.